Time;durP1;ratioP1;P1;durP2;ratioP2;P2;SDS_P1;SDS_P2;PMS_P1;PMS_P2;Temp;Humidity;BMP_temperature;BMP_pressure;BME280_temperature;BME280_humidity;BME280_pressure;Samples;Min_cycle;Max_cycle;Signal;HPM_P1;HPM_P2
2021/11/15 00:00:07;;;;;;;0.40;0.40;;;12.90;95.50;;;;;;5073641;28;20213;-70
2021/11/15 00:02:34;;;;;;;0.50;0.50;;;12.80;95.50;;;;;;5076936;28;20283;-70
2021/11/15 00:05:01;;;;;;;0.20;0.20;;;12.80;95.40;;;;;;5076628;28;20616;-70
2021/11/15 00:07:28;;;;;;;0.10;0.10;;;12.80;95.40;;;;;;5080305;28;20271;-70
2021/11/15 00:09:55;;;;;;;0.30;0.30;;;12.70;95.40;;;;;;5058509;28;20224;-70
2021/11/15 00:12:22;;;;;;;0.20;0.20;;;12.70;95.30;;;;;;5058330;28;20241;-70
2021/11/15 00:14:49;;;;;;;1.17;1.17;;;12.70;95.30;;;;;;5059750;28;20221;-70
2021/11/15 00:17:21;;;;;;;0.40;0.40;;;12.70;95.40;;;;;;5073261;28;20262;-70
2021/11/15 00:19:48;;;;;;;0.70;0.70;;;12.70;95.30;;;;;;5075427;28;20205;-70
2021/11/15 00:22:16;;;;;;;8.73;1.07;;;12.60;95.30;;;;;;5087908;28;20210;-70
2021/11/15 00:24:43;;;;;;;9.83;1.87;;;12.60;95.30;;;;;;5079222;28;20221;-70
2021/11/15 00:27:10;;;;;;;1.03;1.03;;;12.60;95.30;;;;;;5090206;28;20222;-70
2021/11/15 00:29:37;;;;;;;0.83;0.83;;;12.60;95.30;;;;;;5070069;28;20225;-70
2021/11/15 00:32:05;;;;;;;0.77;0.77;;;12.60;95.20;;;;;;5072829;28;20248;-70
2021/11/15 00:34:32;;;;;;;0.67;0.67;;;12.60;95.20;;;;;;5088698;28;20208;-70
2021/11/15 00:36:59;;;;;;;0.43;0.43;;;12.60;95.10;;;;;;5087569;28;20209;-69
2021/11/15 00:39:26;;;;;;;0.63;0.63;;;12.60;95.10;;;;;;5069632;28;20670;-70
2021/11/15 00:41:53;;;;;;;0.13;0.13;;;12.60;95.00;;;;;;5069188;28;20304;-70
2021/11/15 00:44:20;;;;;;;1.30;0.30;;;12.60;94.90;;;;;;5085362;28;20242;-70
2021/11/15 00:46:48;;;;;;;0.40;0.23;;;12.60;94.90;;;;;;5086146;28;20221;-70
2021/11/15 00:49:15;;;;;;;3.10;0.83;;;12.60;94.80;;;;;;5084667;28;20217;-70
2021/11/15 00:51:42;;;;;;;0.10;0.10;;;12.60;94.70;;;;;;5083676;28;20233;-70
2021/11/15 00:54:09;;;;;;;0.10;0.10;;;12.50;94.50;;;;;;5083639;28;20540;-70
2021/11/15 00:56:36;;;;;;;1.40;1.30;;;12.50;94.40;;;;;;5064832;28;20553;-70
2021/11/15 00:59:03;;;;;;;0.43;0.43;;;12.50;94.40;;;;;;5081744;28;20216;-71
2021/11/15 01:01:31;;;;;;;0.87;0.80;;;12.50;94.40;;;;;;5080859;28;20224;-70
2021/11/15 01:03:58;;;;;;;0.30;0.30;;;12.40;94.40;;;;;;5080839;28;20297;-70
2021/11/15 01:06:25;;;;;;;0.43;0.43;;;12.50;94.40;;;;;;5082274;28;20220;-70
2021/11/15 01:08:52;;;;;;;0.50;0.50;;;12.50;94.40;;;;;;5085245;28;20275;-70
2021/11/15 01:11:20;;;;;;;0.93;0.77;;;12.50;94.40;;;;;;5060846;28;20262;-70
2021/11/15 01:13:47;;;;;;;0.47;0.47;;;12.40;94.50;;;;;;5060811;28;20219;-71
2021/11/15 01:16:15;;;;;;;0.10;0.10;;;12.40;94.50;;;;;;5077004;28;20697;-71
2021/11/15 01:18:45;;;;;;;2.90;1.27;;;12.40;94.60;;;;;;5092325;28;20209;-71
2021/11/15 01:21:13;;;;;;;0.20;0.20;;;12.30;94.50;;;;;;5092480;28;20704;-71
2021/11/15 01:23:41;;;;;;;0.50;0.50;;;12.30;94.50;;;;;;5093459;28;20217;-71
2021/11/15 01:26:08;;;;;;;1.70;0.97;;;12.30;94.60;;;;;;5076009;28;20270;-71
2021/11/15 01:28:36;;;;;;;1.10;0.63;;;12.30;94.60;;;;;;5094820;28;20622;-71
2021/11/15 01:31:03;;;;;;;0.50;0.50;;;12.30;94.70;;;;;;5079212;28;20229;-71
2021/11/15 01:33:30;;;;;;;0.70;0.60;;;12.30;94.70;;;;;;5075339;28;20750;-71
2021/11/15 01:35:58;;;;;;;1.97;1.23;;;12.30;94.70;;;;;;5092236;28;20228;-71
2021/11/15 01:38:25;;;;;;;0.50;0.50;;;12.30;94.80;;;;;;5091835;28;20241;-71
2021/11/15 01:40:52;;;;;;;0.50;0.47;;;12.30;94.80;;;;;;5090770;28;20703;-71
2021/11/15 01:43:19;;;;;;;0.87;0.87;;;12.30;94.80;;;;;;5090403;28;20217;-71
2021/11/15 01:45:47;;;;;;;1.13;1.13;;;12.30;94.70;;;;;;5093512;28;20652;-71
2021/11/15 01:48:14;;;;;;;0.40;0.40;;;12.30;94.70;;;;;;5061629;28;20228;-71
2021/11/15 01:50:41;;;;;;;0.83;0.40;;;12.30;94.60;;;;;;5079482;28;20210;-71
2021/11/15 01:53:09;;;;;;;0.80;0.80;;;12.30;94.50;;;;;;5062940;28;20243;-70
2021/11/15 01:55:39;;;;;;;0.30;0.30;;;12.30;94.40;;;;;;5080235;28;20667;-70
2021/11/15 01:58:09;;;;;;;0.10;0.10;;;12.30;94.40;;;;;;5064070;28;20209;-71
2021/11/15 02:00:50;;;;;;;1.37;1.27;;;12.30;94.40;;;;;;5081910;28;20290;-71
2021/11/15 02:03:19;;;;;;;0.60;0.60;;;12.30;94.70;;;;;;5099821;28;20204;-71
2021/11/15 02:05:48;;;;;;;0.20;0.20;;;12.30;94.30;;;;;;5082273;28;20220;-71
2021/11/15 02:08:16;;;;;;;2.13;2.03;;;12.30;94.20;;;;;;5082204;28;20536;-71
2021/11/15 02:10:44;;;;;;;1.53;0.87;;;12.30;94.20;;;;;;5067842;28;20228;-71
2021/11/15 02:13:16;;;;;;;0.20;0.20;;;12.30;94.00;;;;;;5091272;28;20609;-71
2021/11/15 02:15:45;;;;;;;0.10;0.10;;;12.30;94.00;;;;;;5072842;28;20217;-71
2021/11/15 02:18:13;;;;;;;1.13;0.83;;;12.30;94.10;;;;;;5091399;28;20205;-71
2021/11/15 02:20:50;;;;;;;0.20;0.20;;;12.30;94.10;;;;;;5071656;28;20217;-71
2021/11/15 02:23:19;;;;;;;0.20;0.20;;;12.30;94.10;;;;;;5073462;28;20224;-70
2021/11/15 02:25:48;;;;;;;1.10;0.70;;;12.30;94.10;;;;;;5068991;28;20210;-70
2021/11/15 02:28:15;;;;;;;1.13;1.03;;;12.30;94.10;;;;;;5066473;28;20221;-70
2021/11/15 02:30:43;;;;;;;2.23;0.93;;;12.30;94.20;;;;;;5068169;28;20220;-71
2021/11/15 02:33:10;;;;;;;0.77;0.57;;;12.30;94.50;;;;;;5092437;28;20237;-71
2021/11/15 02:35:38;;;;;;;0.63;0.53;;;12.30;94.20;;;;;;5082628;28;20213;-71
2021/11/15 02:38:06;;;;;;;0.20;0.20;;;12.30;94.10;;;;;;5080854;28;20250;-71
2021/11/15 02:40:34;;;;;;;1.40;0.47;;;12.30;94.20;;;;;;5072502;28;20221;-71
2021/11/15 02:43:01;;;;;;;0.67;0.67;;;12.30;94.10;;;;;;5067389;28;20241;-71
2021/11/15 02:45:28;;;;;;;0.80;0.80;;;12.30;94.10;;;;;;5060995;28;20295;-71
2021/11/15 02:47:56;;;;;;;2.17;1.83;;;12.30;94.10;;;;;;5078554;28;20210;-71
2021/11/15 02:50:26;;;;;;;1.97;1.17;;;12.30;94.20;;;;;;5060324;28;20609;-71
2021/11/15 02:52:58;;;;;;;0.57;0.57;;;12.30;94.20;;;;;;5078230;28;20251;-71
2021/11/15 02:55:27;;;;;;;0.17;0.17;;;12.30;94.20;;;;;;5077241;28;20214;-71
2021/11/15 02:57:56;;;;;;;0.50;0.50;;;12.30;94.20;;;;;;5077433;28;20209;-71
2021/11/15 03:00:46;;;;;;;0.30;0.30;;;12.30;94.20;;;;;;5071817;28;20212;-71
2021/11/15 03:03:14;;;;;;;0.23;0.23;;;12.30;94.10;;;;;;5076785;28;20210;-71
2021/11/15 03:05:45;;;;;;;0.93;0.87;;;12.30;94.10;;;;;;5091826;28;20285;-71
2021/11/15 03:08:12;;;;;;;0.83;0.83;;;12.30;94.10;;;;;;5073360;28;20205;-71
2021/11/15 03:10:42;;;;;;;0.73;0.73;;;12.30;94.00;;;;;;5073423;28;20206;-71
2021/11/15 03:13:11;;;;;;;0.23;0.23;;;12.40;94.00;;;;;;5065375;28;20554;-71
2021/11/15 03:15:41;;;;;;;1.10;0.50;;;12.40;94.10;;;;;;5083107;28;20214;-71
2021/11/15 03:18:12;;;;;;;0.70;0.70;;;12.40;94.10;;;;;;5084723;28;20654;-71
2021/11/15 03:20:42;;;;;;;0.63;0.63;;;12.40;94.00;;;;;;5068116;28;20209;-71
2021/11/15 03:23:15;;;;;;;0.50;0.50;;;12.40;94.00;;;;;;5067563;28;20244;-71
2021/11/15 03:25:42;;;;;;;0.10;0.10;;;12.40;93.90;;;;;;5067776;28;20591;-71
2021/11/15 03:28:11;;;;;;;5.73;1.63;;;12.50;93.90;;;;;;5086537;28;20225;-71
2021/11/15 03:30:39;;;;;;;0.57;0.57;;;12.50;93.80;;;;;;5088133;28;20229;-71
2021/11/15 03:33:07;;;;;;;0.20;0.20;;;12.50;93.80;;;;;;5086124;28;20290;-71
2021/11/15 03:35:35;;;;;;;0.37;0.37;;;12.50;93.70;;;;;;5087504;28;20213;-71
2021/11/15 03:38:02;;;;;;;0.60;0.60;;;12.50;93.80;;;;;;5088817;28;20206;-71
2021/11/15 03:40:30;;;;;;;3.27;1.27;;;12.50;93.80;;;;;;5075992;28;20235;-71
2021/11/15 03:43:02;;;;;;;0.20;0.20;;;12.50;93.80;;;;;;5078008;28;20646;-71
2021/11/15 03:45:31;;;;;;;1.20;0.93;;;12.50;93.80;;;;;;5069478;28;20216;-71
2021/11/15 03:47:59;;;;;;;0.23;0.23;;;12.50;93.80;;;;;;5084681;28;20248;-71
2021/11/15 03:50:27;;;;;;;0.10;0.10;;;12.50;93.70;;;;;;5086678;28;20214;-71
2021/11/15 03:53:00;;;;;;;0.77;0.50;;;12.50;93.70;;;;;;5064635;28;20241;-71
2021/11/15 03:55:27;;;;;;;1.93;1.83;;;12.50;93.70;;;;;;5061386;28;20216;-71
2021/11/15 03:57:54;;;;;;;1.50;1.30;;;12.60;93.80;;;;;;5061366;28;20276;-71
2021/11/15 04:00:24;;;;;;;0.10;0.10;;;12.60;93.80;;;;;;5064693;28;20290;-71
2021/11/15 04:02:55;;;;;;;0.67;0.67;;;12.50;93.80;;;;;;5061265;28;20247;-71
2021/11/15 04:05:29;;;;;;;2.10;0.53;;;12.60;93.80;;;;;;5094575;28;20217;-71
2021/11/15 04:07:57;;;;;;;0.30;0.30;;;12.60;93.80;;;;;;5060946;28;20663;-70
2021/11/15 04:10:44;;;;;;;0.40;0.40;;;12.60;93.70;;;;;;5058341;28;20214;-71
2021/11/15 04:13:16;;;;;;;0.77;0.70;;;12.50;93.70;;;;;;5080303;28;20564;-71
2021/11/15 04:15:45;;;;;;;1.50;1.40;;;12.60;93.80;;;;;;5065102;28;20213;-71
2021/11/15 04:18:19;;;;;;;0.73;0.73;;;12.50;93.80;;;;;;5093447;28;20286;-71
2021/11/15 04:20:46;;;;;;;0.20;0.20;;;12.60;93.80;;;;;;5078251;28;20220;-71
2021/11/15 04:23:13;;;;;;;0.97;0.97;;;12.60;93.90;;;;;;5079101;28;20232;-71
2021/11/15 04:25:41;;;;;;;0.50;0.50;;;12.60;93.90;;;;;;5061795;28;20278;-71
2021/11/15 04:28:08;;;;;;;0.77;0.33;;;12.60;93.80;;;;;;5090360;28;20649;-71
2021/11/15 04:30:35;;;;;;;0.20;0.20;;;12.60;93.90;;;;;;5069062;28;20212;-71
2021/11/15 04:33:04;;;;;;;0.77;0.77;;;12.60;93.90;;;;;;5068341;28;20629;-71
2021/11/15 04:35:31;;;;;;;0.70;0.70;;;12.60;93.90;;;;;;5088540;28;20217;-71
2021/11/15 04:38:00;;;;;;;0.10;0.10;;;12.60;94.00;;;;;;5075299;28;20336;-71
2021/11/15 04:40:27;;;;;;;0.10;0.10;;;12.70;94.00;;;;;;5066329;28;20266;-71
2021/11/15 04:42:55;;;;;;;0.73;0.73;;;12.60;94.10;;;;;;5066494;28;20217;-71
2021/11/15 04:45:22;;;;;;;1.23;1.13;;;12.60;94.10;;;;;;5074885;28;20218;-71
2021/11/15 04:47:49;;;;;;;0.23;0.23;;;12.70;94.20;;;;;;5066025;28;20639;-71
2021/11/15 04:50:17;;;;;;;1.17;1.10;;;12.70;94.20;;;;;;5066480;28;20627;-71
2021/11/15 04:52:45;;;;;;;0.20;0.20;;;12.70;94.30;;;;;;5072180;28;20560;-71
2021/11/15 04:55:14;;;;;;;0.77;0.77;;;12.70;94.40;;;;;;5086617;28;20210;-72
2021/11/15 04:57:42;;;;;;;0.53;0.53;;;12.70;94.40;;;;;;5069349;28;20213;-71
2021/11/15 05:00:18;;;;;;;1.40;0.73;;;12.70;94.40;;;;;;5068201;28;20216;-71
2021/11/15 05:02:46;;;;;;;0.50;0.50;;;12.70;94.40;;;;;;5085050;28;20222;-71
2021/11/15 05:05:15;;;;;;;0.30;0.30;;;12.70;94.40;;;;;;5081165;28;20209;-71
2021/11/15 05:07:43;;;;;;;0.60;0.60;;;12.70;94.50;;;;;;5089912;28;20232;-71
2021/11/15 05:10:10;;;;;;;3.37;1.03;;;12.70;94.50;;;;;;5067549;28;20219;-71
2021/11/15 05:12:37;;;;;;;4.37;1.43;;;12.70;94.60;;;;;;5090710;28;20690;-71
2021/11/15 05:15:11;;;;;;;0.73;0.70;;;12.70;94.50;;;;;;5091280;28;20221;-71
2021/11/15 05:17:39;;;;;;;0.83;0.83;;;12.70;94.60;;;;;;5086257;28;20214;-71
2021/11/15 05:20:08;;;;;;;1.00;1.00;;;12.70;94.60;;;;;;5068987;28;20557;-71
2021/11/15 05:22:37;;;;;;;0.77;0.77;;;12.70;94.60;;;;;;5079492;28;20273;-71
2021/11/15 05:25:06;;;;;;;2.37;1.93;;;12.80;94.60;;;;;;5057892;28;20213;-71
2021/11/15 05:27:35;;;;;;;0.43;0.43;;;12.80;94.60;;;;;;5074645;28;20227;-71
2021/11/15 05:30:04;;;;;;;0.10;0.10;;;12.80;94.50;;;;;;5076554;28;20222;-71
2021/11/15 05:32:31;;;;;;;0.30;0.30;;;12.80;94.50;;;;;;5057987;28;20210;-71
2021/11/15 05:34:59;;;;;;;1.93;1.57;;;12.80;94.40;;;;;;5080170;28;20218;-70
2021/11/15 05:37:27;;;;;;;0.40;0.40;;;12.80;94.20;;;;;;5076196;28;20214;-71
2021/11/15 05:39:54;;;;;;;0.40;0.40;;;12.80;94.20;;;;;;5081331;28;20279;-71
2021/11/15 05:42:21;;;;;;;0.47;0.47;;;12.80;94.20;;;;;;5073076;28;20220;-71
2021/11/15 05:44:49;;;;;;;1.17;1.10;;;12.80;94.20;;;;;;5091754;28;20290;-71
2021/11/15 05:47:16;;;;;;;0.47;0.47;;;12.70;94.20;;;;;;5076192;28;20220;-71
2021/11/15 05:49:44;;;;;;;0.60;0.60;;;12.70;94.10;;;;;;5078225;28;20577;-71
2021/11/15 05:52:13;;;;;;;1.07;0.53;;;12.70;94.10;;;;;;5065889;28;20218;-71
2021/11/15 05:54:40;;;;;;;0.47;0.47;;;12.70;94.10;;;;;;5071922;28;20232;-71
2021/11/15 05:57:07;;;;;;;0.47;0.47;;;12.70;94.00;;;;;;5091148;28;20622;-72
2021/11/15 05:59:34;;;;;;;0.40;0.30;;;12.70;94.00;;;;;;5071817;28;20555;-71
2021/11/15 06:02:01;;;;;;;0.30;0.30;;;12.70;94.30;;;;;;5086423;28;20223;-71
2021/11/15 06:04:28;;;;;;;1.23;1.23;;;12.70;94.00;;;;;;5070848;28;20303;-71
2021/11/15 06:06:55;;;;;;;0.37;0.37;;;12.70;94.00;;;;;;5072352;28;20305;-71
2021/11/15 06:09:23;;;;;;;0.67;0.67;;;12.70;94.00;;;;;;5088761;28;20216;-71
2021/11/15 06:11:50;;;;;;;2.00;1.60;;;12.70;94.00;;;;;;5071870;28;20209;-71
2021/11/15 06:14:17;;;;;;;0.80;0.80;;;12.70;94.00;;;;;;5072563;28;20237;-71
2021/11/15 06:16:44;;;;;;;0.83;0.83;;;12.60;94.10;;;;;;5091372;28;20216;-71
2021/11/15 06:19:11;;;;;;;0.30;0.30;;;12.60;94.30;;;;;;5092124;28;20209;-71
2021/11/15 06:21:38;;;;;;;0.83;0.80;;;12.60;94.30;;;;;;5084501;28;20564;-71
2021/11/15 06:24:06;;;;;;;0.43;0.43;;;12.60;94.40;;;;;;5084328;28;20439;-71
2021/11/15 06:26:33;;;;;;;1.37;1.13;;;12.60;94.40;;;;;;5066289;28;20225;-71
2021/11/15 06:29:00;;;;;;;0.43;0.43;;;12.60;94.50;;;;;;5088290;28;20291;-71
2021/11/15 06:31:27;;;;;;;1.47;1.37;;;12.60;94.60;;;;;;5062699;28;20602;-71
2021/11/15 06:33:55;;;;;;;0.70;0.70;;;12.60;94.70;;;;;;5077984;28;20299;-71
2021/11/15 06:36:23;;;;;;;7.90;1.60;;;12.60;94.70;;;;;;5088428;28;20217;-71
2021/11/15 06:38:53;;;;;;;3.33;3.07;;;12.60;94.80;;;;;;5077855;28;20302;-71
2021/11/15 06:41:22;;;;;;;0.33;0.33;;;12.70;94.80;;;;;;5096156;28;20213;-71
2021/11/15 06:43:50;;;;;;;0.50;0.50;;;12.70;94.90;;;;;;5096763;28;20658;-71
2021/11/15 06:46:17;;;;;;;2.57;1.70;;;12.70;94.90;;;;;;5096783;28;20221;-72
2021/11/15 06:48:45;;;;;;;2.60;1.97;;;12.70;94.90;;;;;;5082457;28;20666;-72
2021/11/15 06:51:32;;;;;;;1.07;0.83;;;12.70;94.90;;;;;;5078163;28;20213;-72
2021/11/15 06:53:59;;;;;;;1.77;1.67;;;12.70;94.90;;;;;;5083445;28;20229;-72
2021/11/15 06:56:26;;;;;;;0.87;0.87;;;12.70;94.90;;;;;;5062375;28;20226;-72
2021/11/15 06:58:53;;;;;;;21.17;2.20;;;12.70;94.90;;;;;;5083892;28;20210;-72
2021/11/15 07:01:20;;;;;;;1.80;1.23;;;12.70;94.90;;;;;;5081480;28;20296;-72
2021/11/15 07:03:48;;;;;;;0.53;0.53;;;12.80;94.90;;;;;;5063638;28;20296;-71
2021/11/15 07:06:16;;;;;;;0.67;0.67;;;12.80;94.90;;;;;;5068903;28;20202;-71
2021/11/15 07:08:47;;;;;;;1.83;1.37;;;12.80;94.80;;;;;;5089114;28;20225;-71
2021/11/15 07:11:14;;;;;;;0.90;0.90;;;12.90;94.90;;;;;;5087071;28;20222;-72
2021/11/15 07:13:42;;;;;;;2.03;1.90;;;12.80;94.80;;;;;;5071327;28;20225;-72
2021/11/15 07:16:09;;;;;;;2.20;2.00;;;12.90;94.80;;;;;;5085968;28;20217;-71
2021/11/15 07:18:36;;;;;;;0.87;0.87;;;12.90;94.80;;;;;;5069287;28;20237;-71
2021/11/15 07:21:04;;;;;;;6.50;2.37;;;12.90;94.80;;;;;;5070071;28;20290;-72
2021/11/15 07:23:32;;;;;;;1.90;1.77;;;13.00;94.80;;;;;;5072211;28;20559;-71
2021/11/15 07:25:59;;;;;;;0.87;0.87;;;13.00;94.70;;;;;;5086392;28;20219;-71
2021/11/15 07:28:26;;;;;;;1.73;1.67;;;13.00;94.70;;;;;;5068360;28;20209;-71
2021/11/15 07:30:57;;;;;;;0.83;0.83;;;13.10;94.70;;;;;;5070731;28;20228;-72
2021/11/15 07:33:26;;;;;;;1.00;1.00;;;13.10;94.60;;;;;;5067366;28;20690;-72
2021/11/15 07:35:54;;;;;;;3.50;1.43;;;13.10;94.50;;;;;;5068648;28;20272;-71
2021/11/15 07:38:21;;;;;;;2.63;2.40;;;13.20;94.40;;;;;;5083713;28;20241;-71
2021/11/15 07:40:49;;;;;;;1.33;1.23;;;13.20;94.40;;;;;;5065651;28;20312;-71
2021/11/15 07:43:17;;;;;;;2.13;1.97;;;13.20;94.40;;;;;;5082154;28;20223;-70
2021/11/15 07:45:45;;;;;;;1.20;1.20;;;13.20;94.40;;;;;;5067272;28;20217;-70
2021/11/15 07:48:12;;;;;;;0.90;0.90;;;13.30;94.20;;;;;;5073609;28;20237;-70
2021/11/15 07:50:40;;;;;;;2.10;1.87;;;13.30;94.10;;;;;;5065093;28;20213;-70
2021/11/15 07:53:07;;;;;;;3.10;2.40;;;13.40;94.00;;;;;;5083107;28;20209;-70
2021/11/15 07:55:34;;;;;;;15.97;2.80;;;13.40;94.00;;;;;;5070433;28;20213;-70
2021/11/15 07:58:04;;;;;;;0.60;0.60;;;13.50;93.90;;;;;;5080601;28;20214;-70
2021/11/15 08:00:32;;;;;;;0.70;0.70;;;13.50;93.90;;;;;;5068625;28;20631;-70
2021/11/15 08:02:59;;;;;;;3.03;1.80;;;13.50;93.80;;;;;;5070163;28;20206;-71
2021/11/15 08:05:27;;;;;;;1.33;1.23;;;13.50;93.80;;;;;;5063797;28;20560;-71
2021/11/15 08:07:54;;;;;;;3.87;1.37;;;13.60;93.70;;;;;;5060633;28;20205;-71
2021/11/15 08:10:21;;;;;;;7.07;1.97;;;13.60;93.60;;;;;;5075861;28;20708;-70
2021/11/15 08:12:53;;;;;;;0.30;0.30;;;13.60;93.60;;;;;;5076181;28;20224;-70
2021/11/15 08:15:23;;;;;;;1.00;1.00;;;13.70;93.70;;;;;;5065502;28;20234;-70
2021/11/15 08:17:54;;;;;;;0.77;0.77;;;13.70;93.60;;;;;;5074829;28;20206;-70
2021/11/15 08:20:28;;;;;;;4.73;0.77;;;13.70;93.60;;;;;;5074691;28;20596;-70
2021/11/15 08:23:01;;;;;;;1.27;1.17;;;13.80;93.60;;;;;;5073162;28;20213;-70
2021/11/15 08:25:51;;;;;;;2.43;1.37;;;13.80;93.50;;;;;;5089957;28;20209;-70
2021/11/15 08:28:19;;;;;;;2.07;1.90;;;13.80;93.30;;;;;;5079473;28;20606;-70
2021/11/15 08:30:46;;;;;;;1.03;0.73;;;13.90;93.20;;;;;;5067865;28;20665;-70
2021/11/15 08:33:13;;;;;;;19.87;2.90;;;14.00;93.10;;;;;;5074181;28;20235;-70
2021/11/15 08:35:41;;;;;;;0.33;0.33;;;14.00;93.00;;;;;;5085914;28;20228;-70
2021/11/15 08:38:18;;;;;;;3.20;1.63;;;14.10;93.00;;;;;;5068093;28;20237;-70
2021/11/15 08:40:50;;;;;;;2.30;1.33;;;14.20;92.80;;;;;;5083028;28;20266;-70
2021/11/15 08:43:20;;;;;;;6.93;1.67;;;14.30;92.70;;;;;;5068603;28;20209;-70
2021/11/15 08:45:49;;;;;;;0.97;0.90;;;14.30;92.50;;;;;;5065573;28;20229;-70
2021/11/15 08:48:18;;;;;;;1.27;1.17;;;14.40;92.40;;;;;;5067751;28;20214;-70
2021/11/15 08:50:45;;;;;;;1.13;1.13;;;14.40;92.30;;;;;;5084051;28;20224;-70
2021/11/15 08:53:12;;;;;;;1.27;1.17;;;14.50;92.30;;;;;;5086696;28;20224;-70
2021/11/15 08:55:39;;;;;;;0.80;0.80;;;14.50;92.10;;;;;;5085542;28;20260;-70
2021/11/15 08:58:06;;;;;;;1.73;1.63;;;14.50;92.00;;;;;;5087340;28;20300;-70
2021/11/15 09:00:34;;;;;;;0.57;0.57;;;14.60;92.00;;;;;;5068126;28;20213;-70
2021/11/15 09:03:01;;;;;;;5.30;1.90;;;14.60;91.90;;;;;;5062917;28;20651;-71
2021/11/15 09:05:28;;;;;;;1.23;1.13;;;14.70;91.70;;;;;;5080919;28;20267;-71
2021/11/15 09:07:55;;;;;;;0.80;0.80;;;14.70;91.90;;;;;;5082811;28;20538;-71
2021/11/15 09:10:23;;;;;;;4.23;1.40;;;14.70;91.40;;;;;;5106183;28;20229;-71
2021/11/15 09:12:50;;;;;;;3.60;2.00;;;14.70;91.50;;;;;;5082195;28;20213;-71
2021/11/15 09:15:19;;;;;;;6.13;2.07;;;14.70;91.30;;;;;;5080516;28;20563;-71
2021/11/15 09:17:46;;;;;;;0.40;0.40;;;14.70;91.30;;;;;;5074408;28;20303;-71
2021/11/15 09:20:16;;;;;;;1.90;1.20;;;14.80;91.30;;;;;;5070178;28;20213;-71
2021/11/15 09:22:43;;;;;;;0.40;0.40;;;14.80;91.20;;;;;;5058329;28;20217;-71
2021/11/15 09:25:11;;;;;;;0.83;0.83;;;14.90;91.30;;;;;;5074096;28;20642;-71
2021/11/15 09:27:39;;;;;;;4.00;1.90;;;14.90;91.10;;;;;;5075936;28;20286;-71
2021/11/15 09:30:09;;;;;;;0.90;0.90;;;15.00;91.10;;;;;;5077391;28;20693;-71
2021/11/15 09:32:37;;;;;;;1.13;1.13;;;15.00;91.10;;;;;;5092187;28;20225;-71
2021/11/15 09:35:05;;;;;;;1.90;1.80;;;14.90;91.20;;;;;;5088791;28;20610;-71
2021/11/15 09:37:34;;;;;;;70.00;3.80;;;14.90;91.20;;;;;;5083603;28;20209;-71
2021/11/15 09:40:03;;;;;;;1.13;1.13;;;14.90;91.20;;;;;;5090673;28;20248;-71
2021/11/15 09:42:31;;;;;;;2.77;1.97;;;15.00;91.20;;;;;;5091071;28;20564;-70
2021/11/15 09:45:01;;;;;;;4.33;0.83;;;15.00;91.00;;;;;;5085376;28;20221;-71
2021/11/15 09:47:28;;;;;;;1.70;0.97;;;15.00;90.70;;;;;;5077675;28;20565;-71
2021/11/15 09:49:57;;;;;;;1.30;1.07;;;15.00;90.80;;;;;;5083443;28;20224;-71
2021/11/15 09:52:24;;;;;;;0.43;0.43;;;14.90;90.80;;;;;;5082536;28;20218;-71
2021/11/15 09:54:51;;;;;;;0.80;0.73;;;14.80;90.90;;;;;;5086920;28;20237;-71
2021/11/15 09:57:38;;;;;;;2.10;1.53;;;14.70;91.00;;;;;;5086181;28;20273;-71
2021/11/15 10:00:12;;;;;;;0.70;0.70;;;14.60;91.10;;;;;;5083865;28;20217;-71
2021/11/15 10:02:40;;;;;;;2.63;1.87;;;14.60;91.20;;;;;;5091460;28;20208;-70
2021/11/15 10:05:10;;;;;;;1.33;1.23;;;14.60;91.30;;;;;;5083378;28;20213;-71
2021/11/15 10:07:39;;;;;;;1.23;1.23;;;14.60;91.10;;;;;;5082325;28;20222;-71
2021/11/15 10:10:24;;;;;;;1.03;0.83;;;14.60;91.10;;;;;;5083988;28;20213;-70
2021/11/15 10:13:29;;;;;;;2.33;1.80;;;14.60;91.10;;;;;;5084895;28;20630;-71
2021/11/15 10:16:08;;;;;;;2.83;1.53;;;14.60;91.10;;;;;;5049067;28;20232;-71
2021/11/15 10:19:05;;;;;;;3.03;1.30;;;14.60;91.00;;;;;;5084069;28;20220;-71
2021/11/15 10:21:37;;;;;;;7.03;3.33;;;14.50;91.10;;;;;;5066250;28;20283;-70
2021/11/15 10:24:04;;;;;;;1.87;1.77;;;14.50;91.20;;;;;;5080197;28;20701;-70
2021/11/15 10:26:40;;;;;;;1.20;1.03;;;14.50;91.30;;;;;;5085275;28;20205;-71
2021/11/15 10:29:14;;;;;;;1.33;1.33;;;14.60;91.40;;;;;;5079676;28;20278;-71
2021/11/15 10:31:48;;;;;;;3.37;1.90;;;14.70;91.40;;;;;;5083084;28;20211;-70
2021/11/15 10:34:33;;;;;;;0.80;0.80;;;14.80;91.40;;;;;;5085687;28;20324;-70
2021/11/15 10:37:19;;;;;;;0.47;0.47;;;14.90;91.40;;;;;;5086326;28;20209;-71
2021/11/15 10:40:10;;;;;;;3.07;1.63;;;15.00;91.20;;;;;;5085681;28;20250;-71
2021/11/15 10:42:46;;;;;;;3.83;3.53;;;15.20;91.10;;;;;;5082374;28;20213;-71
2021/11/15 10:45:15;;;;;;;3.13;1.37;;;15.30;90.80;;;;;;5087228;28;20240;-71
2021/11/15 10:47:44;;;;;;;2.90;0.97;;;15.30;90.70;;;;;;5080503;28;20263;-71
2021/11/15 10:50:29;;;;;;;1.97;1.87;;;15.20;90.60;;;;;;5077875;28;20213;-70
2021/11/15 10:53:06;;;;;;;3.13;1.40;;;15.20;90.80;;;;;;5081957;28;20241;-71
2021/11/15 10:55:40;;;;;;;4.67;2.27;;;15.30;90.80;;;;;;5078804;28;20244;-71
2021/11/15 10:58:15;;;;;;;0.20;0.20;;;15.20;90.90;;;;;;5091657;28;20217;-71
2021/11/15 11:00:51;;;;;;;1.80;1.70;;;15.20;91.00;;;;;;5084754;28;20232;-71
2021/11/15 11:03:21;;;;;;;1.10;1.10;;;15.20;91.00;;;;;;5081463;28;20214;-70
2021/11/15 11:05:55;;;;;;;2.43;0.90;;;15.20;91.00;;;;;;5085973;28;20221;-70
2021/11/15 11:08:27;;;;;;;1.33;0.77;;;15.10;91.00;;;;;;5090228;28;20538;-71
2021/11/15 11:11:13;;;;;;;2.07;1.87;;;15.10;91.00;;;;;;5085669;28;20214;-70
2021/11/15 11:13:55;;;;;;;1.33;1.23;;;15.00;91.00;;;;;;5083753;28;20213;-70
2021/11/15 11:16:50;;;;;;;0.53;0.53;;;14.90;91.00;;;;;;5084986;28;20564;-71
2021/11/15 11:27:09;;;;;;;1.20;1.10;;;14.80;91.60;;;;;;5085317;28;20536;-71
2021/11/15 11:29:41;;;;;;;1.50;1.40;;;14.80;91.80;;;;;;5086366;28;20224;-71
2021/11/15 11:32:16;;;;;;;2.63;2.13;;;14.80;91.90;;;;;;5084610;28;20550;-71
2021/11/15 11:34:44;;;;;;;4.00;1.03;;;14.80;92.00;;;;;;5089017;28;20224;-71
2021/11/15 11:37:14;;;;;;;3.03;1.43;;;14.80;92.10;;;;;;5093102;28;20559;-73
2021/11/15 11:39:44;;;;;;;1.17;1.17;;;14.80;92.10;;;;;;5092809;28;20241;-71
2021/11/15 11:42:15;;;;;;;1.60;1.53;;;14.70;92.20;;;;;;5082985;28;20209;-72
2021/11/15 11:44:44;;;;;;;5.07;1.53;;;14.70;92.40;;;;;;5092567;28;20217;-72
2021/11/15 11:47:14;;;;;;;0.80;0.80;;;14.60;92.40;;;;;;5089957;28;20220;-73
2021/11/15 11:49:45;;;;;;;0.60;0.60;;;14.60;92.40;;;;;;5087525;28;20231;-72
2021/11/15 11:52:15;;;;;;;1.33;1.23;;;14.50;92.60;;;;;;5080026;28;20214;-72
2021/11/15 11:54:46;;;;;;;2.30;2.10;;;14.50;92.80;;;;;;5092196;28;20328;-73
2021/11/15 11:57:20;;;;;;;0.37;0.37;;;14.50;93.10;;;;;;5077988;28;20252;-73
2021/11/15 11:59:47;;;;;;;0.90;0.90;;;14.50;93.10;;;;;;5080299;28;20206;-71
2021/11/15 12:02:19;;;;;;;1.17;1.17;;;14.50;93.20;;;;;;5095624;28;20587;-73
2021/11/15 12:05:06;;;;;;;3.10;1.47;;;14.50;93.20;;;;;;5089267;28;20295;-71
2021/11/15 12:07:38;;;;;;;0.97;0.97;;;14.50;93.00;;;;;;5076263;28;20305;-71
2021/11/15 12:10:12;;;;;;;2.53;2.37;;;14.50;93.10;;;;;;5092627;28;20531;-71
2021/11/15 12:12:54;;;;;;;5.00;2.70;;;14.50;93.00;;;;;;5088489;28;20222;-72
2021/11/15 12:15:39;;;;;;;1.63;1.53;;;14.60;93.00;;;;;;5076519;28;20248;-71
2021/11/15 12:18:14;;;;;;;0.87;0.83;;;14.70;93.00;;;;;;5091862;28;20544;-71
2021/11/15 12:21:05;;;;;;;2.30;2.10;;;14.80;93.10;;;;;;5091576;28;20209;-71
2021/11/15 12:23:40;;;;;;;6.23;3.77;;;14.90;92.80;;;;;;5071703;28;20210;-70
2021/11/15 12:26:17;;;;;;;1.07;1.07;;;14.90;92.50;;;;;;5084253;28;20224;-71
2021/11/15 12:28:47;;;;;;;5.07;3.73;;;15.00;92.40;;;;;;5089346;28;20221;-71
2021/11/15 12:31:33;;;;;;;1.27;1.17;;;15.00;92.30;;;;;;5082560;28;20290;-70
2021/11/15 12:34:04;;;;;;;0.73;0.57;;;15.10;92.00;;;;;;5087852;28;20215;-71
2021/11/15 12:36:39;;;;;;;1.53;1.43;;;15.20;92.00;;;;;;5084806;28;20233;-70
2021/11/15 12:39:19;;;;;;;8.70;3.00;;;15.30;91.80;;;;;;5092390;28;20241;-70
2021/11/15 12:41:49;;;;;;;3.67;1.57;;;15.40;91.60;;;;;;5087358;28;20654;-70
2021/11/15 12:44:29;;;;;;;1.90;1.80;;;15.40;91.50;;;;;;5085566;28;20232;-70
2021/11/15 12:47:14;;;;;;;0.90;0.90;;;15.40;91.30;;;;;;5099310;28;20278;-70
2021/11/15 12:49:54;;;;;;;2.00;1.90;;;15.30;91.70;;;;;;5092716;28;20615;-71
2021/11/15 12:52:29;;;;;;;3.97;3.33;;;15.40;91.40;;;;;;5086372;28;20261;-71
2021/11/15 12:54:58;;;;;;;2.90;2.60;;;15.30;91.20;;;;;;5082594;28;20567;-70
2021/11/15 12:57:25;;;;;;;2.10;2.00;;;15.30;90.70;;;;;;5083184;28;20228;-71
2021/11/15 12:59:58;;;;;;;4.33;2.00;;;15.20;90.90;;;;;;5086246;28;20278;-71
2021/11/15 13:02:26;;;;;;;19.07;4.50;;;15.20;91.00;;;;;;5082141;28;20221;-70
2021/11/15 13:04:55;;;;;;;1.90;1.63;;;15.10;91.10;;;;;;5083253;28;20214;-69
2021/11/15 13:07:23;;;;;;;2.70;2.47;;;15.00;91.10;;;;;;5074925;28;20587;-70